Time;durP1;ratioP1;P1;durP2;ratioP2;P2;SDS_P1;SDS_P2;PMS_P1;PMS_P2;Temp;Humidity;BMP_temperature;BMP_pressure;BME280_temperature;BME280_humidity;BME280_pressure;Samples;Min_cycle;Max_cycle;Signal;HPM_P1;HPM_P2
2021/08/24 00:00:08;;;;;;;2.83;1.35;;;17.20;85.70;;;;;;5055116;28;20029;-62
2021/08/24 00:02:33;;;;;;;2.75;1.30;;;17.10;85.70;;;;;;5054937;28;20100;-62
2021/08/24 00:04:59;;;;;;;2.38;1.10;;;17.10;85.90;;;;;;5054884;28;20112;-62
2021/08/24 00:07:24;;;;;;;2.13;0.88;;;17.10;86.00;;;;;;5055148;28;20054;-62
2021/08/24 00:09:50;;;;;;;2.63;1.10;;;17.00;86.10;;;;;;5037155;28;20115;-62
2021/08/24 00:12:16;;;;;;;2.22;0.90;;;17.00;86.10;;;;;;5054869;28;20033;-62
2021/08/24 00:14:42;;;;;;;2.22;1.10;;;17.00;86.10;;;;;;5036950;28;20559;-62
2021/08/24 00:17:08;;;;;;;2.47;1.30;;;17.00;86.30;;;;;;5054666;28;20159;-62
2021/08/24 00:19:33;;;;;;;3.42;1.23;;;16.90;86.40;;;;;;5054731;28;20029;-62
2021/08/24 00:21:59;;;;;;;2.20;1.20;;;16.90;86.50;;;;;;5054790;28;20473;-62
2021/08/24 00:24:25;;;;;;;2.15;1.10;;;16.90;86.60;;;;;;5054733;28;20473;-62
2021/08/24 00:26:50;;;;;;;8.50;1.02;;;16.90;86.60;;;;;;5054740;28;20128;-62
2021/08/24 00:29:16;;;;;;;2.20;1.02;;;16.90;86.70;;;;;;5054643;28;20025;-62
2021/08/24 00:31:42;;;;;;;4.32;1.00;;;16.90;86.70;;;;;;5036670;28;20500;-61
2021/08/24 00:34:07;;;;;;;4.43;1.10;;;16.80;86.80;;;;;;5054378;28;20033;-62
2021/08/24 00:36:33;;;;;;;1.60;0.70;;;16.80;86.80;;;;;;5054596;28;20477;-61
2021/08/24 00:39:00;;;;;;;2.50;0.80;;;16.80;86.90;;;;;;5054271;28;20075;-62
2021/08/24 00:41:26;;;;;;;2.75;1.20;;;16.80;87.00;;;;;;5036595;28;20487;-62
2021/08/24 00:43:52;;;;;;;2.25;0.80;;;16.70;87.00;;;;;;5054312;28;20448;-62
2021/08/24 00:46:28;;;;;;;3.60;0.93;;;16.70;87.60;;;;;;5036572;28;20028;-62
2021/08/24 00:48:55;;;;;;;1.65;0.85;;;16.70;87.10;;;;;;5053891;28;20434;-62
2021/08/24 00:51:24;;;;;;;3.03;1.10;;;16.60;87.30;;;;;;5036248;28;20071;-62
2021/08/24 00:53:50;;;;;;;2.60;1.33;;;16.60;87.30;;;;;;5054043;28;20046;-62
2021/08/24 00:56:16;;;;;;;2.13;1.00;;;16.60;87.40;;;;;;5071649;28;20488;-62
2021/08/24 00:58:43;;;;;;;1.67;0.90;;;16.60;87.40;;;;;;5073533;28;20033;-62
2021/08/24 01:01:12;;;;;;;1.35;0.80;;;16.60;87.40;;;;;;5073776;28;20035;-61
2021/08/24 01:03:44;;;;;;;1.40;0.60;;;16.50;87.40;;;;;;5056520;28;20495;-62
2021/08/24 01:06:23;;;;;;;1.35;0.90;;;16.50;87.60;;;;;;5073850;28;20032;-62
2021/08/24 01:08:55;;;;;;;3.22;0.90;;;16.50;87.60;;;;;;5073911;28;20024;-62
2021/08/24 01:11:32;;;;;;;1.30;0.80;;;16.40;87.60;;;;;;5073798;28;20427;-62
2021/08/24 01:14:37;;;;;;;2.15;0.98;;;16.40;87.50;;;;;;5073598;28;20024;-62
2021/08/24 01:17:13;;;;;;;1.70;0.60;;;16.40;87.50;;;;;;5059217;28;20040;-62
2021/08/24 01:20:23;;;;;;;1.48;0.82;;;16.40;87.70;;;;;;5073532;28;20031;-62
2021/08/24 01:23:20;;;;;;;1.20;0.82;;;16.30;87.50;;;;;;5073646;28;20017;-62
2021/08/24 01:26:22;;;;;;;2.72;0.80;;;16.20;87.70;;;;;;5073555;28;20024;-62
2021/08/24 01:29:25;;;;;;;1.52;0.75;;;16.20;87.80;;;;;;5055619;28;20035;-62
2021/08/24 01:32:28;;;;;;;1.17;0.60;;;16.20;87.90;;;;;;5073494;28;20024;-61
2021/08/24 01:35:18;;;;;;;1.73;0.82;;;16.10;88.00;;;;;;5073363;28;20035;-62
2021/08/24 01:37:52;;;;;;;3.03;0.93;;;16.10;88.00;;;;;;5073346;28;20380;-62
2021/08/24 01:40:26;;;;;;;2.65;1.10;;;16.00;88.20;;;;;;5073298;28;20105;-62
2021/08/24 01:42:52;;;;;;;2.22;1.00;;;16.00;88.30;;;;;;5073208;28;20032;-62
2021/08/24 01:45:25;;;;;;;2.40;0.93;;;16.00;88.30;;;;;;5073507;28;20137;-62
2021/08/24 01:47:58;;;;;;;3.22;0.77;;;16.00;88.40;;;;;;5073295;28;20021;-62
2021/08/24 01:50:40;;;;;;;2.05;0.82;;;15.90;88.40;;;;;;5073054;28;20028;-62
2021/08/24 01:53:29;;;;;;;1.23;0.70;;;15.90;88.40;;;;;;5061419;28;20444;-62
2021/08/24 01:56:07;;;;;;;2.60;0.90;;;15.90;88.50;;;;;;5053008;28;20384;-62
2021/08/24 01:58:46;;;;;;;1.92;1.10;;;15.90;88.50;;;;;;5053238;28;20484;-62
2021/08/24 02:01:18;;;;;;;1.58;0.90;;;15.80;88.60;;;;;;5053017;28;20025;-62
2021/08/24 02:03:49;;;;;;;1.67;0.85;;;15.80;88.80;;;;;;5052749;28;20028;-62
2021/08/24 02:06:26;;;;;;;2.40;1.27;;;15.80;88.90;;;;;;5052952;28;20025;-62
2021/08/24 02:08:55;;;;;;;1.45;1.00;;;15.70;89.00;;;;;;5052457;28;20017;-62
2021/08/24 02:11:22;;;;;;;3.92;1.17;;;15.70;89.10;;;;;;5052650;28;20068;-62
2021/08/24 02:13:50;;;;;;;2.75;1.05;;;15.60;89.10;;;;;;5052807;28;20029;-62
2021/08/24 02:16:19;;;;;;;2.55;1.10;;;15.60;89.30;;;;;;5052483;28;20061;-62
2021/08/24 02:18:52;;;;;;;2.33;0.90;;;15.60;89.30;;;;;;5052932;28;20104;-62
2021/08/24 02:21:24;;;;;;;2.25;1.00;;;15.60;89.50;;;;;;5052713;28;20440;-61
2021/08/24 02:23:54;;;;;;;2.05;1.15;;;15.60;89.60;;;;;;5052756;28;20021;-62
2021/08/24 02:26:20;;;;;;;;;;;15.50;89.80;;;;;;5053021;28;20033;-62
2021/08/24 02:28:53;;;;;;;1.45;0.93;;;15.40;89.80;;;;;;5052699;28;19904;-62
2021/08/24 02:31:38;;;;;;;2.78;1.05;;;15.30;90.10;;;;;;5052851;28;20035;-62
2021/08/24 02:34:37;;;;;;;4.38;1.15;;;15.40;90.20;;;;;;5052675;28;20099;-62
2021/08/24 02:37:20;;;;;;;3.03;1.15;;;15.30;90.20;;;;;;5052384;28;20027;-62
2021/08/24 02:39:54;;;;;;;2.05;0.88;;;15.30;90.30;;;;;;5052719;28;20527;-62
2021/08/24 02:42:28;;;;;;;2.33;1.10;;;15.30;90.40;;;;;;5052569;28;20107;-62
2021/08/24 02:45:04;;;;;;;4.40;1.70;;;15.30;90.40;;;;;;5052549;28;20029;-62
2021/08/24 02:47:31;;;;;;;2.55;1.17;;;15.30;90.50;;;;;;5052601;28;20025;-62
2021/08/24 02:49:57;;;;;;;2.13;1.00;;;15.20;90.50;;;;;;5052322;28;20033;-62
2021/08/24 02:52:23;;;;;;;2.60;1.15;;;15.20;90.50;;;;;;5052268;28;20045;-62
2021/08/24 02:54:52;;;;;;;2.58;1.20;;;15.20;90.60;;;;;;5052517;28;20550;-62
2021/08/24 02:57:18;;;;;;;2.13;1.20;;;15.20;90.70;;;;;;5052292;28;20040;-62
2021/08/24 02:59:43;;;;;;;3.00;1.30;;;15.20;90.80;;;;;;5052471;28;20028;-61
2021/08/24 03:02:16;;;;;;;2.25;1.05;;;15.20;90.80;;;;;;5052223;28;20104;-62
2021/08/24 03:04:42;;;;;;;2.03;1.30;;;15.20;90.90;;;;;;5052443;28;20025;-61
2021/08/24 03:07:12;;;;;;;3.90;1.25;;;15.10;90.90;;;;;;5052078;28;20044;-62
2021/08/24 03:09:40;;;;;;;3.35;1.10;;;15.10;91.00;;;;;;5052397;28;20451;-62
2021/08/24 03:12:12;;;;;;;1.85;0.98;;;15.10;91.00;;;;;;5034366;28;20036;-62
2021/08/24 03:14:46;;;;;;;2.63;1.30;;;15.10;91.10;;;;;;5034245;28;20392;-62
2021/08/24 03:17:21;;;;;;;3.60;1.23;;;15.10;91.20;;;;;;5052137;28;20074;-62
2021/08/24 03:19:48;;;;;;;2.53;1.02;;;15.10;91.20;;;;;;5052662;28;20388;-62
2021/08/24 03:22:14;;;;;;;1.58;1.00;;;15.00;91.30;;;;;;5055238;28;20600;-62
2021/08/24 03:24:41;;;;;;;2.15;1.10;;;15.00;91.30;;;;;;5055915;28;20049;-61
2021/08/24 03:27:09;;;;;;;2.55;1.20;;;15.00;91.40;;;;;;5055596;28;20028;-61
2021/08/24 03:29:35;;;;;;;3.03;1.52;;;15.00;91.50;;;;;;5055877;28;20086;-61
2021/08/24 03:32:02;;;;;;;2.45;1.35;;;14.90;91.50;;;;;;5055684;28;20025;-62
2021/08/24 03:34:27;;;;;;;2.42;1.00;;;14.90;91.60;;;;;;5055578;28;20119;-62
2021/08/24 03:36:53;;;;;;;1.88;1.02;;;14.90;91.70;;;;;;5055635;28;20112;-61
2021/08/24 03:39:19;;;;;;;3.13;1.48;;;14.80;91.70;;;;;;5055617;28;20033;-61
2021/08/24 03:41:44;;;;;;;2.60;1.25;;;14.80;91.80;;;;;;5055428;28;20380;-61
2021/08/24 03:44:10;;;;;;;2.22;1.10;;;14.80;91.80;;;;;;5055274;28;20483;-61
2021/08/24 03:46:36;;;;;;;2.17;1.25;;;14.80;91.90;;;;;;5055178;28;20029;-61
2021/08/24 03:49:01;;;;;;;3.13;1.50;;;14.70;92.00;;;;;;5055527;28;20469;-62
2021/08/24 03:51:27;;;;;;;2.97;1.25;;;14.70;92.10;;;;;;5055099;28;20057;-61
2021/08/24 03:53:53;;;;;;;3.10;1.42;;;14.70;92.10;;;;;;5055218;28;20025;-61
2021/08/24 03:56:19;;;;;;;2.42;1.42;;;14.60;92.20;;;;;;5055055;28;20029;-62
2021/08/24 03:58:44;;;;;;;1.88;1.40;;;14.60;92.30;;;;;;5055237;28;20029;-62
2021/08/24 04:01:16;;;;;;;2.08;1.40;;;14.60;92.40;;;;;;5055182;28;20024;-62
2021/08/24 04:03:42;;;;;;;3.38;1.50;;;14.60;92.40;;;;;;5055052;28;20025;-62
2021/08/24 04:06:07;;;;;;;3.90;1.73;;;14.60;92.50;;;;;;5055083;28;20421;-62
2021/08/24 04:08:33;;;;;;;2.70;1.80;;;14.60;92.60;;;;;;5036961;28;20025;-61
2021/08/24 04:11:02;;;;;;;4.40;1.70;;;14.50;92.60;;;;;;5054890;28;20037;-62
2021/08/24 04:13:28;;;;;;;4.53;1.70;;;14.60;92.70;;;;;;5054969;28;20021;-62
2021/08/24 04:15:54;;;;;;;3.20;1.70;;;14.50;92.80;;;;;;5055054;28;20051;-62
2021/08/24 04:18:19;;;;;;;2.58;1.55;;;14.50;92.80;;;;;;5054778;28;20047;-61
2021/08/24 04:20:58;;;;;;;4.10;1.88;;;14.50;92.90;;;;;;5054809;28;20469;-62
2021/08/24 04:30:56;;;;;;;3.20;1.73;;;14.40;93.10;;;;;;4859581;29;20048;-62
2021/08/24 04:33:22;;;;;;;2.58;1.25;;;14.40;93.20;;;;;;4843818;29;20049;-61
2021/08/24 04:35:52;;;;;;;3.45;1.63;;;14.30;93.30;;;;;;4937873;29;20039;-62
2021/08/24 04:38:17;;;;;;;;;;;14.30;93.40;;;;;;4992467;28;20033;-61
2021/08/24 04:40:44;;;;;;;3.45;1.35;;;14.30;93.30;;;;;;5034577;28;19905;-62
2021/08/24 04:43:10;;;;;;;3.10;1.70;;;14.30;93.50;;;;;;5034321;28;20032;-62
2021/08/24 04:45:35;;;;;;;4.13;2.00;;;14.30;93.50;;;;;;5016759;28;20071;-61
2021/08/24 04:48:01;;;;;;;2.72;1.60;;;14.30;93.60;;;;;;5027825;28;20443;-62
2021/08/24 04:50:26;;;;;;;5.13;1.80;;;14.30;93.70;;;;;;5053677;28;20527;-61
2021/08/24 04:52:52;;;;;;;3.15;2.20;;;14.20;93.70;;;;;;5035089;28;20451;-61
2021/08/24 04:55:17;;;;;;;3.35;2.30;;;14.20;93.90;;;;;;5036353;28;20025;-61
2021/08/24 04:57:43;;;;;;;3.20;2.28;;;14.20;94.00;;;;;;5036305;28;20029;-62
2021/08/24 05:00:09;;;;;;;3.10;2.03;;;14.10;94.20;;;;;;5036180;28;20120;-62
2021/08/24 05:02:35;;;;;;;5.22;2.55;;;14.10;94.30;;;;;;5053895;28;20029;-62
2021/08/24 05:05:01;;;;;;;4.50;2.17;;;14.10;94.40;;;;;;5053827;28;20039;-62
2021/08/24 05:07:28;;;;;;;6.07;2.70;;;14.10;94.50;;;;;;5053940;28;20100;-62
2021/08/24 05:09:53;;;;;;;6.25;2.60;;;14.10;94.60;;;;;;5035884;28;20473;-62
2021/08/24 05:12:19;;;;;;;3.40;2.42;;;14.10;94.70;;;;;;5035915;28;20025;-62
2021/08/24 05:14:44;;;;;;;6.50;2.67;;;14.10;94.70;;;;;;5053590;28;20025;-61
2021/08/24 05:17:10;;;;;;;4.40;2.28;;;14.10;94.90;;;;;;5035773;28;20116;-62
2021/08/24 05:19:35;;;;;;;4.68;2.58;;;14.10;94.90;;;;;;5053309;28;20021;-61
2021/08/24 05:22:01;;;;;;;3.33;2.35;;;14.10;95.00;;;;;;5053320;28;20025;-61
2021/08/24 05:24:26;;;;;;;4.18;2.55;;;14.10;95.30;;;;;;5053449;28;20526;-61
2021/08/24 05:26:52;;;;;;;4.30;2.58;;;14.20;95.10;;;;;;5053473;28;20029;-62
2021/08/24 05:29:17;;;;;;;4.03;2.75;;;14.20;95.20;;;;;;5035483;28;20036;-62
2021/08/24 05:31:44;;;;;;;5.15;2.42;;;14.10;95.30;;;;;;5048413;28;20032;-62
2021/08/24 05:34:10;;;;;;;5.00;2.55;;;14.20;95.30;;;;;;5052408;28;20029;-62
2021/08/24 05:36:36;;;;;;;5.07;2.90;;;14.20;95.40;;;;;;5033117;28;20504;-62
2021/08/24 05:39:02;;;;;;;3.83;2.55;;;14.30;95.50;;;;;;5032710;28;20238;-61
2021/08/24 05:41:28;;;;;;;7.75;2.85;;;14.30;95.50;;;;;;5045318;28;20034;-62
2021/08/24 05:43:54;;;;;;;4.22;2.58;;;14.30;95.60;;;;;;5048777;28;20017;-62
2021/08/24 05:46:20;;;;;;;6.03;3.05;;;14.30;95.70;;;;;;5034268;28;20047;-61
2021/08/24 05:48:46;;;;;;;4.75;2.92;;;14.30;95.70;;;;;;5051931;28;20029;-62
2021/08/24 05:51:15;;;;;;;4.95;2.88;;;14.40;95.80;;;;;;5052004;28;20045;-62
2021/08/24 05:53:41;;;;;;;5.15;2.83;;;14.40;95.90;;;;;;5033736;28;20020;-62
2021/08/24 05:56:08;;;;;;;4.70;3.00;;;14.40;95.90;;;;;;5033509;28;20120;-61
2021/08/24 05:58:34;;;;;;;4.13;2.70;;;14.40;96.00;;;;;;5033111;28;20044;-62
2021/08/24 06:01:09;;;;;;;4.60;2.85;;;14.50;96.10;;;;;;5049456;28;20021;-62
2021/08/24 06:03:37;;;;;;;6.05;2.70;;;14.50;96.10;;;;;;5051919;28;20013;-61
2021/08/24 06:06:03;;;;;;;4.20;3.00;;;14.50;96.20;;;;;;5051812;28;20054;-62
2021/08/24 06:08:39;;;;;;;5.20;3.28;;;14.50;96.30;;;;;;5051877;28;20025;-62
2021/08/24 06:11:04;;;;;;;6.43;3.30;;;14.60;96.40;;;;;;5050393;28;20024;-61
2021/08/24 06:13:30;;;;;;;5.65;3.47;;;14.60;96.40;;;;;;5051700;28;20029;-62
2021/08/24 06:15:55;;;;;;;4.35;2.50;;;14.60;96.50;;;;;;5033848;28;20028;-61
2021/08/24 06:18:21;;;;;;;4.90;3.15;;;14.70;96.60;;;;;;5051642;28;20472;-62
2021/08/24 06:20:48;;;;;;;8.13;3.55;;;14.70;96.70;;;;;;5051779;28;20021;-62
2021/08/24 06:23:13;;;;;;;6.00;4.05;;;14.70;96.70;;;;;;5051684;28;20009;-61
2021/08/24 06:25:39;;;;;;;6.22;3.67;;;14.80;96.90;;;;;;5051261;28;20086;-61
2021/08/24 06:28:04;;;;;;;5.47;3.58;;;14.80;96.90;;;;;;5051948;28;20106;-62
2021/08/24 06:30:31;;;;;;;5.60;3.40;;;14.90;97.00;;;;;;5051160;28;20037;-62
2021/08/24 06:32:58;;;;;;;5.55;3.40;;;14.90;97.10;;;;;;5050912;28;20044;-62
2021/08/24 06:35:24;;;;;;;4.32;3.17;;;15.00;97.20;;;;;;5051088;28;20080;-61
2021/08/24 06:37:49;;;;;;;8.40;4.20;;;15.00;97.30;;;;;;5050983;28;20461;-61
2021/08/24 06:40:17;;;;;;;6.57;3.53;;;15.00;97.40;;;;;;5051167;28;20029;-62
2021/08/24 06:42:46;;;;;;;6.60;4.25;;;15.10;97.50;;;;;;5033279;28;20033;-61
2021/08/24 06:45:16;;;;;;;6.45;4.07;;;15.20;97.70;;;;;;5050916;28;20020;-62
2021/08/24 06:47:42;;;;;;;5.75;4.13;;;15.20;97.80;;;;;;5050813;28;20045;-62
2021/08/24 06:50:08;;;;;;;9.95;3.67;;;15.30;98.00;;;;;;5033183;28;20154;-62
2021/08/24 06:52:35;;;;;;;6.28;3.47;;;15.30;98.10;;;;;;5051249;28;20057;-62
2021/08/24 06:55:00;;;;;;;7.82;4.13;;;15.40;98.20;;;;;;5050851;28;20100;-62
2021/08/24 06:57:26;;;;;;;6.15;4.13;;;15.50;98.40;;;;;;5054829;28;20100;-62
2021/08/24 06:59:52;;;;;;;6.40;4.18;;;15.50;98.50;;;;;;5036429;28;20021;-62
2021/08/24 07:02:17;;;;;;;5.65;3.35;;;15.60;98.60;;;;;;5054060;28;20107;-62
2021/08/24 07:04:47;;;;;;;6.32;3.90;;;15.70;98.60;;;;;;5060600;28;20035;-62
2021/08/24 07:07:13;;;;;;;6.93;5.15;;;15.70;98.70;;;;;;5061205;28;20032;-62
2021/08/24 07:09:39;;;;;;;8.75;4.63;;;15.80;99.00;;;;;;5055510;28;20090;-62
2021/08/24 07:12:04;;;;;;;10.23;4.88;;;15.80;99.20;;;;;;5054844;28;20094;-62
2021/08/24 07:14:31;;;;;;;7.60;4.68;;;15.90;99.30;;;;;;5037963;28;20029;-62
2021/08/24 07:16:56;;;;;;;5.18;3.72;;;16.00;99.30;;;;;;5037904;28;20025;-62
2021/08/24 07:19:22;;;;;;;5.70;3.88;;;16.10;99.30;;;;;;5037757;28;20051;-62
2021/08/24 07:21:47;;;;;;;6.68;4.22;;;16.10;99.30;;;;;;5037616;28;20056;-62
2021/08/24 07:24:13;;;;;;;9.90;4.35;;;16.20;99.40;;;;;;5055600;28;20017;-62
2021/08/24 07:26:38;;;;;;;6.53;3.88;;;16.30;99.50;;;;;;5055319;28;20071;-62
2021/08/24 07:29:04;;;;;;;7.72;4.32;;;16.30;99.50;;;;;;5055415;28;20110;-62
2021/08/24 07:31:37;;;;;;;7.50;4.43;;;16.40;99.60;;;;;;5054985;28;20029;-62
2021/08/24 07:34:03;;;;;;;5.55;3.92;;;16.40;99.60;;;;;;5036850;28;20029;-62
2021/08/24 07:36:28;;;;;;;6.47;3.67;;;16.50;99.60;;;;;;5057477;28;20031;-62
2021/08/24 07:38:54;;;;;;;9.32;3.60;;;16.60;99.60;;;;;;5054811;28;20021;-62
2021/08/24 07:41:19;;;;;;;5.13;3.90;;;16.70;99.50;;;;;;5054309;28;20036;-62
2021/08/24 07:43:45;;;;;;;7.13;3.65;;;16.70;99.50;;;;;;5057367;28;20024;-62
2021/08/24 07:46:10;;;;;;;6.47;3.75;;;16.80;99.40;;;;;;5054787;28;20477;-62
2021/08/24 07:48:36;;;;;;;4.70;3.15;;;16.90;99.60;;;;;;5055243;28;20040;-62
2021/08/24 07:51:02;;;;;;;5.25;3.70;;;16.90;99.20;;;;;;5054845;28;20041;-62
2021/08/24 07:53:27;;;;;;;6.78;3.67;;;17.00;99.10;;;;;;5054994;28;20037;-62
2021/08/24 07:56:01;;;;;;;7.20;3.60;;;17.00;99.00;;;;;;5055021;28;20075;-62
2021/08/24 07:58:26;;;;;;;4.85;3.35;;;17.20;98.90;;;;;;5054830;28;20499;-62
2021/08/24 08:00:52;;;;;;;4.90;3.30;;;17.20;98.90;;;;;;5037141;28;20029;-62
2021/08/24 08:03:20;;;;;;;4.60;3.28;;;17.30;98.80;;;;;;5036866;28;20074;-62
2021/08/24 08:05:46;;;;;;;4.10;3.05;;;17.40;98.70;;;;;;5037059;28;20025;-62
2021/08/24 08:08:11;;;;;;;5.00;2.85;;;17.40;98.60;;;;;;5053729;28;20033;-63
2021/08/24 08:10:37;;;;;;;5.03;2.70;;;17.50;98.50;;;;;;5055000;28;20033;-62
2021/08/24 08:13:03;;;;;;;7.03;3.00;;;17.50;98.30;;;;;;5054468;28;20048;-62
2021/08/24 08:15:31;;;;;;;6.50;3.05;;;17.60;98.20;;;;;;5054787;28;20390;-62
2021/08/24 08:17:58;;;;;;;5.47;2.30;;;17.70;98.10;;;;;;5054547;28;20032;-62
2021/08/24 08:20:24;;;;;;;4.57;3.00;;;17.80;98.00;;;;;;5054477;28;20537;-63
2021/08/24 08:22:50;;;;;;;6.47;3.40;;;17.90;97.90;;;;;;5051001;28;20104;-62
2021/08/24 08:25:16;;;;;;;6.72;3.40;;;17.90;97.60;;;;;;5036258;28;20047;-62
2021/08/24 08:27:41;;;;;;;8.20;3.20;;;18.00;97.30;;;;;;5054272;28;20033;-62
2021/08/24 08:30:09;;;;;;;9.95;3.40;;;18.00;97.10;;;;;;5053845;28;20025;-62
2021/08/24 08:32:38;;;;;;;6.07;2.78;;;18.10;96.90;;;;;;5054409;28;20031;-62
2021/08/24 08:35:05;;;;;;;3.67;2.47;;;18.20;96.70;;;;;;5054153;28;20059;-62
2021/08/24 08:37:47;;;;;;;3.72;2.30;;;18.30;96.60;;;;;;5054046;28;20036;-62
2021/08/24 08:40:15;;;;;;;6.03;3.67;;;18.30;96.40;;;;;;5035959;28;20025;-62
2021/08/24 08:42:59;;;;;;;4.82;2.67;;;18.40;96.20;;;;;;5049783;28;20017;-62
2021/08/24 08:45:58;;;;;;;5.03;3.22;;;18.50;95.90;;;;;;5054114;28;20051;-62
2021/08/24 08:49:21;;;;;;;5.43;2.58;;;18.60;95.70;;;;;;5036185;28;20021;-62
2021/08/24 08:51:51;;;;;;;3.97;2.60;;;18.60;95.50;;;;;;5049630;28;20116;-62
2021/08/24 08:54:19;;;;;;;;;;;18.70;95.30;;;;;;5033549;28;20022;-62
2021/08/24 08:56:51;;;;;;;5.00;2.10;;;18.70;95.20;;;;;;5034932;28;19912;-62
2021/08/24 08:59:49;;;;;;;;;;;;;;;;;;;;;
2021/08/24 09:02:49;;;;;;;5.65;2.47;;;19.00;94.50;;;;;;5053960;28;20021;-62
2021/08/24 09:05:18;;;;;;;3.50;2.05;;;19.10;94.30;;;;;;5027230;28;20427;-62
2021/08/24 09:07:49;;;;;;;4.93;2.55;;;19.10;94.20;;;;;;5053864;28;20048;-62
2021/08/24 09:10:32;;;;;;;3.65;2.25;;;19.20;93.90;;;;;;5053491;28;20048;-62
2021/08/24 09:13:28;;;;;;;6.32;2.70;;;19.30;94.00;;;;;;5052836;28;20021;-62
2021/08/24 09:16:04;;;;;;;3.97;2.63;;;19.40;93.40;;;;;;5045607;28;20037;-62
2021/08/24 09:18:54;;;;;;;4.10;2.33;;;19.50;93.10;;;;;;5053146;28;20025;-62
2021/08/24 09:21:34;;;;;;;3.83;2.20;;;19.60;92.70;;;;;;5053308;28;20108;-62
2021/08/24 09:24:13;;;;;;;;;;;19.60;92.50;;;;;;5053584;28;20032;-62
2021/08/24 09:26:47;;;;;;;3.37;1.83;;;19.70;92.50;;;;;;5053418;28;19909;-63
2021/08/24 09:29:15;;;;;;;2.70;2.00;;;19.80;92.10;;;;;;5053120;28;20025;-62
2021/08/24 09:31:42;;;;;;;5.90;2.60;;;19.90;91.90;;;;;;5035303;28;20021;-62
2021/08/24 09:34:11;;;;;;;5.00;2.38;;;20.00;91.70;;;;;;5053132;28;20033;-62
2021/08/24 09:36:37;;;;;;;2.95;2.28;;;20.10;91.60;;;;;;5052995;28;20029;-62
2021/08/24 09:39:03;;;;;;;3.78;2.15;;;20.20;91.50;;;;;;5052844;28;20370;-62
2021/08/24 09:41:50;;;;;;;;;;;;;;;;;;;;;
2021/08/24 09:44:26;;;;;;;5.90;2.78;;;20.30;91.00;;;;;;5053019;28;20507;-63
2021/08/24 09:47:01;;;;;;;6.50;2.72;;;20.40;90.80;;;;;;5052477;28;20047;-62
2021/08/24 09:49:35;;;;;;;4.80;2.33;;;20.50;90.60;;;;;;5034178;28;20071;-62
2021/08/24 09:52:20;;;;;;;5.13;2.10;;;20.60;90.50;;;;;;5032614;28;20073;-62
2021/08/24 09:54:49;;;;;;;4.88;2.28;;;20.70;90.10;;;;;;5052096;28;20027;-62
2021/08/24 09:57:39;;;;;;;3.47;2.45;;;20.80;90.00;;;;;;5052542;28;20084;-62
2021/08/24 10:00:25;;;;;;;5.05;2.35;;;21.00;89.40;;;;;;5040993;28;20033;-62
2021/08/24 10:02:56;;;;;;;6.07;2.03;;;21.10;89.20;;;;;;5051579;28;20488;-63
2021/08/24 10:05:21;;;;;;;4.57;2.72;;;21.20;89.10;;;;;;5034108;28;20029;-62
2021/08/24 10:07:52;;;;;;;3.13;2.10;;;21.30;88.50;;;;;;5052712;28;20036;-62
2021/08/24 10:10:27;;;;;;;3.40;2.55;;;21.40;88.20;;;;;;5052825;28;20051;-62
2021/08/24 10:13:25;;;;;;;4.25;2.47;;;21.50;88.30;;;;;;5052624;28;20040;-62
2021/08/24 10:15:55;;;;;;;5.90;3.20;;;21.70;87.50;;;;;;5052356;28;20037;-62
2021/08/24 10:18:23;;;;;;;6.20;2.70;;;21.70;86.50;;;;;;5034139;28;20766;-62
2021/08/24 10:20:59;;;;;;;5.38;3.13;;;21.80;86.40;;;;;;5052515;28;20053;-62
2021/08/24 10:23:37;;;;;;;5.65;3.38;;;22.00;86.00;;;;;;5032890;28;20028;-63
2021/08/24 10:26:26;;;;;;;4.07;2.60;;;22.10;85.30;;;;;;5051149;28;20506;-63
2021/08/24 10:29:00;;;;;;;5.03;2.72;;;22.20;85.00;;;;;;5051103;28;20092;-63
2021/08/24 10:31:28;;;;;;;4.03;2.08;;;22.30;83.10;;;;;;5053651;28;20485;-62
2021/08/24 10:34:02;;;;;;;2.15;1.67;;;22.40;82.50;;;;;;5056423;28;20035;-62
2021/08/24 10:36:34;;;;;;;5.28;2.15;;;22.50;81.80;;;;;;5055748;28;20033;-62
2021/08/24 10:39:02;;;;;;;4.68;2.35;;;22.60;80.90;;;;;;5056113;28;20396;-63
2021/08/24 10:41:36;;;;;;;3.07;1.90;;;22.70;80.20;;;;;;5038661;28;20029;-63
2021/08/24 10:44:19;;;;;;;3.67;1.50;;;22.90;79.80;;;;;;5056338;28;20025;-63
2021/08/24 10:46:49;;;;;;;4.47;1.75;;;23.00;78.70;;;;;;5037988;28;20025;-62
2021/08/24 10:49:20;;;;;;;1.88;1.40;;;23.10;77.60;;;;;;5055571;28;20032;-63
2021/08/24 10:52:22;;;;;;;3.63;1.70;;;23.40;77.10;;;;;;5055438;28;20072;-63
2021/08/24 10:54:59;;;;;;;2.83;1.55;;;23.50;75.80;;;;;;5008763;28;20087;-62
2021/08/24 10:57:51;;;;;;;2.30;1.20;;;23.60;73.30;;;;;;5056162;28;20061;-63
2021/08/24 11:00:22;;;;;;;3.38;1.70;;;23.80;73.30;;;;;;5056141;28;20571;-63
2021/08/24 11:03:03;;;;;;;2.70;1.48;;;24.10;73.00;;;;;;5055113;28;20232;-63
2021/08/24 11:05:52;;;;;;;2.47;1.42;;;24.20;72.80;;;;;;5053688;28;20033;-63
2021/08/24 11:08:51;;;;;;;3.13;1.60;;;24.40;72.60;;;;;;5053927;28;20089;-63
2021/08/24 11:11:17;;;;;;;;;;;25.00;72.00;;;;;;5053680;28;20409;-63
2021/08/24 11:14:10;;;;;;;3.65;1.52;;;27.10;68.60;;;;;;5036206;28;19959;-63
2021/08/24 11:16:55;;;;;;;1.90;1.30;;;29.00;63.60;;;;;;5053109;28;20029;-63
2021/08/24 11:19:38;;;;;;;3.08;1.75;;;30.90;58.50;;;;;;5054220;28;20488;-63
2021/08/24 11:22:07;;;;;;;2.28;1.10;;;32.60;55.30;;;;;;5036967;28;20013;-63
2021/08/24 11:24:58;;;;;;;2.17;1.23;;;34.00;51.60;;;;;;5046881;28;20021;-63
2021/08/24 11:27:45;;;;;;;2.83;1.55;;;34.40;49.20;;;;;;5037096;28;20392;-63
2021/08/24 11:30:20;;;;;;;2.38;1.23;;;34.30;47.70;;;;;;5037196;28;20022;-63
2021/08/24 11:32:49;;;;;;;2.33;1.17;;;34.00;47.70;;;;;;5036910;28;20468;-63
2021/08/24 11:35:20;;;;;;;4.05;1.40;;;32.80;48.00;;;;;;5054761;28;20037;-63
2021/08/24 11:37:57;;;;;;;2.25;1.55;;;31.60;49.90;;;;;;5054760;28;20492;-63
2021/08/24 11:40:40;;;;;;;2.72;1.38;;;30.90;50.60;;;;;;5036740;28;20021;-63
2021/08/24 11:43:32;;;;;;;2.30;1.30;;;30.40;51.30;;;;;;5054274;28;20021;-63
2021/08/24 11:46:01;;;;;;;2.05;1.42;;;30.10;52.50;;;;;;5054798;28;20096;-63
2021/08/24 11:48:41;;;;;;;3.58;1.60;;;30.10;53.30;;;;;;5054662;28;20025;-63
2021/08/24 11:51:16;;;;;;;3.40;1.33;;;30.20;52.30;;;;;;5054339;28;20059;-63
2021/08/24 11:53:57;;;;;;;3.00;1.00;;;30.30;51.90;;;;;;5034009;28;20167;-63
2021/08/24 11:56:44;;;;;;;2.22;1.40;;;30.50;51.90;;;;;;5054393;28;20057;-63
2021/08/24 11:59:25;;;;;;;2.22;1.25;;;30.60;49.80;;;;;;5036566;28;20021;-63
2021/08/24 12:01:52;;;;;;;2.97;1.42;;;30.70;49.50;;;;;;5054253;28;20024;-63
2021/08/24 12:04:25;;;;;;;1.98;1.10;;;30.70;50.00;;;;;;5054355;28;20485;-63
2021/08/24 12:06:58;;;;;;;2.50;1.30;;;31.00;49.60;;;;;;5054362;28;20099;-63
2021/08/24 12:09:44;;;;;;;3.15;1.50;;;30.70;47.70;;;;;;5054318;28;20025;-63
2021/08/24 12:12:17;;;;;;;1.65;1.20;;;30.70;48.60;;;;;;5054116;28;20017;-63
2021/08/24 12:14:55;;;;;;;2.75;1.48;;;30.90;48.20;;;;;;5054095;28;20025;-63
2021/08/24 12:17:32;;;;;;;1.98;1.55;;;31.00;47.60;;;;;;5036049;28;20040;-63
2021/08/24 12:20:02;;;;;;;3.50;1.10;;;31.10;47.20;;;;;;5054094;28;20027;-63
2021/08/24 12:22:37;;;;;;;2.20;1.55;;;31.50;47.40;;;;;;5033801;28;20021;-63
2021/08/24 12:25:27;;;;;;;3.03;1.67;;;31.70;46.00;;;;;;5035853;28;20021;-63
2021/08/24 12:28:13;;;;;;;2.60;1.50;;;31.70;44.40;;;;;;5036172;28;20066;-63
2021/08/24 12:30:58;;;;;;;3.55;1.35;;;31.50;44.40;;;;;;5053986;28;20112;-63
2021/08/24 12:33:45;;;;;;;2.50;1.30;;;31.50;44.00;;;;;;5021980;28;20029;-63
2021/08/24 12:36:19;;;;;;;2.88;1.50;;;31.50;43.40;;;;;;5053754;28;20056;-63
2021/08/24 12:38:51;;;;;;;2.85;1.73;;;31.40;43.50;;;;;;5053665;28;20020;-63
2021/08/24 12:41:32;;;;;;;2.42;1.50;;;31.50;43.30;;;;;;5054088;28;20049;-63
2021/08/24 12:44:12;;;;;;;2.22;1.42;;;31.70;43.90;;;;;;5054147;28;20021;-63
2021/08/24 12:46:40;;;;;;;2.65;1.88;;;31.90;43.60;;;;;;5053563;28;20025;-64
2021/08/24 12:49:15;;;;;;;2.40;1.70;;;31.90;43.30;;;;;;5053195;28;20063;-63
2021/08/24 12:51:51;;;;;;;1.90;1.40;;;32.00;43.00;;;;;;5053559;28;20041;-63
2021/08/24 12:54:22;;;;;;;2.25;1.38;;;32.00;43.40;;;;;;5031904;28;20053;-63
2021/08/24 12:56:59;;;;;;;2.10;1.63;;;32.00;43.30;;;;;;5015722;28;20029;-63
2021/08/24 12:59:30;;;;;;;2.63;1.63;;;32.00;43.10;;;;;;5033993;28;20496;-63
2021/08/24 13:02:24;;;;;;;2.40;1.63;;;32.20;43.50;;;;;;5033824;28;20546;-63
2021/08/24 13:05:53;;;;;;;;;;;;;;;;;;;;;
2021/08/24 13:08:27;;;;;;;1.77;1.42;;;32.00;43.10;;;;;;5006236;28;20040;-64
2021/08/24 13:11:45;;;;;;;2.05;1.50;;;32.00;42.60;;;;;;5039575;28;20024;-63
2021/08/24 13:14:46;;;;;;;1.63;1.33;;;32.00;42.50;;;;;;5045254;28;20028;-64
2021/08/24 13:17:16;;;;;;;2.40;1.48;;;32.10;43.20;;;;;;5052876;28;20504;-63
2021/08/24 13:19:47;;;;;;;3.40;1.50;;;32.10;42.60;;;;;;5052914;28;20086;-64
2021/08/24 13:23:02;;;;;;;2.20;1.60;;;32.20;42.50;;;;;;5052953;28;20017;-63
2021/08/24 13:25:31;;;;;;;2.47;1.38;;;32.20;42.90;;;;;;5035021;28;20098;-64